Airfield :
LOGIN :

Register | Disclaimer

   EN    FR    IT 

 










Legend :    VFR   Marginal VFR   IFR   Intensive IFR   Very Intensive IFR
Visi :
Ceiling :
>= 8 km
>= 3000ft
5 to 8 km
1000 to 3000 ft
1500m to 5 km
500 to 1000 ft
800 to 1500m
200 to 500 ft
< 800m
< 200 ft
Symbols :   Thunderstorms  Fog  Heavy snow  Heavy precipitations  Wind > 20 kt
SIGMETs :     Misc.  Thunderstorms  Icing  Turbulence  Mountain Waves  Volcanic Ashes







- Airport Elevation : 106 ft
- IATA code : XDA
- Download approach charts


LFBY - Dax Seyresse

CURRENT METAR :
  • 261000Z 11004KT 060V150 4000 BR SCT005 BKN006 21/19 Q1016

EXPIRED METARs :
  • 260900Z 12004KT 050V170 3000 BR SCT003 BKN004 20/19 Q1016
  • 260800Z VRB03KT 3000 BR FEW003 BKN005 19/18 Q1016
  • 260730Z VRB02KT 3000 BR FEW003 BKN005 19/18 Q1016
  • 260706Z 00000KT 3000 BR SCT003 BKN005 19/18 Q1016

TAF TAF LFBY
Valid from the 26 at 09:00 until the 26 at 18:00 UTC


260800Z 2609/2618 24006KT 3000 BR BKN005
BECMG 2609/2611 CAVOK
No reported NOTAMs for that airfield.
2 SIGMETs reported for the Bordeaux FIR (LFBB) :
 
Severe mountain waves
LFBB SIGMET 3 VALID 261000/261400 LFPW
LFBB BORDEAUX FIR/UIR SEV MTW FCST WI N4215 E00200 - N4300 W00115 - N4315 W00100 - N4245 E00200 - N4215 E00200 SFC/FL200 STNR NC=
Severe mountain waves
LFBB SIGMET 2 VALID 260600/261000 LFPW
LFBB BORDEAUX FIR/UIR SEV MTW FCST WI N4215 E00200 - N4245 W00045 - N4315 W00030 - N4300 E00145 - N4215 E00200 SFC/FL180 STNR NC=



MET'MAP, your aeronautical weather chart ! - Copyright ORBIFLY December 2007 - Disclaimer

ORBIFLY MET'MAP TEAM :

Programming & Development : Alexandra Zaïnal
Concept & Development : Baudouin d'Aumeries
Co-Development & Prog : Marc-Olivier Méhu
Technical & hardware support : Manuel Goepfert

Contact : metmap@orbifly.com




SOURCES & CREDITS :

   NOAA